createdAt,value
2019-01-12T00:00:47.230Z,2.90
2019-01-12T00:03:16.757Z,2.20
2019-01-12T00:05:46.323Z,2.70
2019-01-12T00:08:15.996Z,2.40
2019-01-12T00:10:45.504Z,3.17
2019-01-12T00:13:15.048Z,2.93
2019-01-12T00:15:44.586Z,3.30
2019-01-12T00:18:14.109Z,2.80
2019-01-12T00:20:43.638Z,3.17
2019-01-12T00:23:13.490Z,3.30
2019-01-12T00:25:43.013Z,2.97
2019-01-12T00:28:12.504Z,2.93
2019-01-12T00:30:42.027Z,3.50
2019-01-12T00:33:11.572Z,3.50
2019-01-12T00:35:41.075Z,2.90
2019-01-12T00:38:10.613Z,2.40
2019-01-12T00:40:40.116Z,3.07
2019-01-12T00:43:10.016Z,3.00
2019-01-12T00:45:39.506Z,3.70
2019-01-12T00:48:09.007Z,3.10
2019-01-12T00:50:38.625Z,2.93
2019-01-12T00:53:08.279Z,3.37
2019-01-12T00:55:37.813Z,2.83
2019-01-12T00:58:07.334Z,3.30
2019-01-12T01:00:36.897Z,3.67
2019-01-12T01:03:06.520Z,3.27
2019-01-12T01:05:36.113Z,2.93
2019-01-12T01:08:06.024Z,3.27
2019-01-12T01:10:35.556Z,2.83
2019-01-12T01:13:05.154Z,3.13
2019-01-12T01:15:34.683Z,2.80
2019-01-12T01:18:04.666Z,2.83
2019-01-12T01:20:34.218Z,4.17
2019-01-12T01:23:03.776Z,3.50
2019-01-12T01:25:33.276Z,2.57
2019-01-12T01:28:02.845Z,2.97
2019-01-12T01:30:32.360Z,3.07
2019-01-12T01:33:01.917Z,2.70
2019-01-12T01:35:31.471Z,2.87
2019-01-12T01:38:00.941Z,2.47
2019-01-12T01:40:30.431Z,2.70
2019-01-12T01:43:00.310Z,2.70
2019-01-12T01:45:29.852Z,2.70
2019-01-12T01:47:59.411Z,3.20
2019-01-12T01:50:28.941Z,3.40
2019-01-12T01:52:58.452Z,2.87
2019-01-12T01:55:27.978Z,2.60
2019-01-12T01:57:57.488Z,2.53
2019-01-12T02:00:27.023Z,2.73
2019-01-12T02:02:56.521Z,3.00
2019-01-12T02:05:26.073Z,2.93
2019-01-12T02:07:55.990Z,2.67
2019-01-12T02:10:25.605Z,2.60
2019-01-12T02:12:55.091Z,3.17
2019-01-12T02:15:24.736Z,2.60
2019-01-12T02:17:54.708Z,3.10
2019-01-12T02:20:24.269Z,3.37
2019-01-12T02:22:53.794Z,2.90
2019-01-12T02:25:23.670Z,2.70
2019-01-12T02:27:53.210Z,3.43
2019-01-12T02:30:26.125Z,3.30
2019-01-12T02:32:56.077Z,3.50
2019-01-12T02:35:25.965Z,3.20
2019-01-12T02:37:55.463Z,3.70
2019-01-12T02:40:24.989Z,3.70
2019-01-12T02:42:54.557Z,4.03
2019-01-12T02:45:24.097Z,2.97
2019-01-12T02:47:53.627Z,2.77
2019-01-12T02:50:23.153Z,4.13
2019-01-12T02:52:52.847Z,2.60
2019-01-12T02:55:22.379Z,3.03
2019-01-12T02:57:51.871Z,2.93
2019-01-12T03:00:21.556Z,2.90
2019-01-12T03:02:51.094Z,3.93
2019-01-12T03:05:20.702Z,3.47
2019-01-12T03:07:50.320Z,3.30
2019-01-12T03:10:19.875Z,3.23
2019-01-12T03:12:49.422Z,4.03
2019-01-12T03:15:19.485Z,3.43
2019-01-12T03:17:48.978Z,3.40
2019-01-12T03:20:18.944Z,2.50
2019-01-12T03:22:48.457Z,2.83
2019-01-12T03:25:19.221Z,2.90
2019-01-12T03:27:48.977Z,3.30
2019-01-12T03:30:19.865Z,3.50
2019-01-12T03:32:49.862Z,3.60
2019-01-12T03:35:19.416Z,4.07
2019-01-12T03:37:48.945Z,3.27
2019-01-12T03:40:20.766Z,3.37
2019-01-12T03:42:50.848Z,3.60
2019-01-12T03:45:21.083Z,5.47
2019-01-12T03:47:50.683Z,4.70
2019-01-12T03:50:20.334Z,4.37
2019-01-12T03:52:49.925Z,4.63
2019-01-12T03:55:25.569Z,3.90
2019-01-12T03:57:51.045Z,4.97
2019-01-12T04:00:24.852Z,5.50
2019-01-12T04:02:54.387Z,5.00
2019-01-12T04:05:23.970Z,3.80
2019-01-12T04:07:53.513Z,4.53
2019-01-12T04:10:23.045Z,3.53
2019-01-12T04:12:52.571Z,3.40
2019-01-12T04:15:22.087Z,3.87
2019-01-12T04:17:51.660Z,3.97
2019-01-12T04:20:21.164Z,3.50
2019-01-12T04:22:50.692Z,3.73
2019-01-12T04:25:20.273Z,4.03
2019-01-12T04:27:49.768Z,5.37
2019-01-12T04:30:19.880Z,5.07
2019-01-12T04:32:49.401Z,5.40
2019-01-12T04:35:18.968Z,5.67
2019-01-12T04:37:48.432Z,5.80
2019-01-12T04:40:21.224Z,6.07
2019-01-12T04:42:50.749Z,5.30
2019-01-12T04:45:20.283Z,5.70
2019-01-12T04:47:49.797Z,5.43
2019-01-12T04:50:19.478Z,6.17
2019-01-12T04:52:49.325Z,6.80
2019-01-12T04:55:18.965Z,6.40
2019-01-12T04:57:48.541Z,6.10
2019-01-12T05:00:19.199Z,7.20
2019-01-12T05:02:48.728Z,6.10
2019-01-12T05:05:18.513Z,7.70
2019-01-12T05:07:48.073Z,5.90
2019-01-12T05:10:17.607Z,6.67
2019-01-12T05:12:47.518Z,5.63
2019-01-12T05:15:17.179Z,5.90
2019-01-12T05:17:47.618Z,5.90
2019-01-12T05:20:21.596Z,5.80
2019-01-12T05:22:51.181Z,5.20
2019-01-12T05:25:20.715Z,5.70
2019-01-12T05:27:50.261Z,6.00
2019-01-12T05:30:21.653Z,7.13
2019-01-12T05:32:51.568Z,5.53
2019-01-12T05:35:21.106Z,5.43
2019-01-12T05:37:50.661Z,6.80
2019-01-12T05:40:20.297Z,5.70
2019-01-12T05:42:49.798Z,6.60
2019-01-12T05:45:19.621Z,5.83
2019-01-12T05:47:49.116Z,6.33
2019-01-12T05:50:18.757Z,6.50
2019-01-12T05:52:48.334Z,6.67
2019-01-12T05:55:18.258Z,5.43
2019-01-12T05:57:47.826Z,6.70
2019-01-12T06:00:22.304Z,6.43
2019-01-12T06:02:51.823Z,7.00
2019-01-12T06:05:21.762Z,7.20
2019-01-12T06:08:04.804Z,7.10
2019-01-12T06:10:50.391Z,6.70
2019-01-12T06:13:54.735Z,7.73
2019-01-12T06:17:05.847Z,7.97
2019-01-12T06:20:02.146Z,9.00
2019-01-12T06:22:49.922Z,9.37
2019-01-12T06:25:46.060Z,9.10
2019-01-12T06:28:46.464Z,10.47
2019-01-12T06:31:49.390Z,10.87
2019-01-12T06:34:40.137Z,10.67
2019-01-12T06:37:15.381Z,10.00
2019-01-12T06:40:10.871Z,12.00
2019-01-12T06:43:00.848Z,11.67
2019-01-12T06:45:40.253Z,11.67
2019-01-12T06:48:27.997Z,12.60
2019-01-12T06:51:38.264Z,10.50
2019-01-12T06:54:24.526Z,11.07
2019-01-12T06:57:35.843Z,12.40
2019-01-12T07:00:18.291Z,11.63
2019-01-12T07:06:56.191Z,11.30
2019-01-12T07:10:29.066Z,10.80
2019-01-12T07:13:02.958Z,12.83
2019-01-12T07:16:28.682Z,12.33
2019-01-12T07:19:24.803Z,11.47
2019-01-12T07:22:14.658Z,13.20
2019-01-12T07:25:27.167Z,12.30
2019-01-12T07:28:24.053Z,11.33
2019-01-12T07:31:33.565Z,12.87
2019-01-12T07:35:07.666Z,13.67
2019-01-12T07:38:30.997Z,12.30
2019-01-12T07:41:39.729Z,13.20
2019-01-12T07:45:06.676Z,13.93
2019-01-12T07:47:30.114Z,15.43
2019-01-12T07:49:59.633Z,14.53
2019-01-12T07:52:29.233Z,15.40
2019-01-12T07:54:58.769Z,14.80
2019-01-12T07:57:28.635Z,14.40
2019-01-12T07:59:58.139Z,16.70
2019-01-12T08:02:27.649Z,15.57
2019-01-12T08:04:57.217Z,16.80
2019-01-12T08:07:26.743Z,17.63
2019-01-12T08:09:56.321Z,15.90
2019-01-12T08:12:25.854Z,17.23
2019-01-12T08:14:55.526Z,17.33
2019-01-12T08:17:25.043Z,18.03
2019-01-12T08:19:54.951Z,17.70
2019-01-12T08:22:24.480Z,18.83
2019-01-12T08:24:54.345Z,18.60
2019-01-12T08:27:24.160Z,20.80
2019-01-12T08:29:53.662Z,21.03
2019-01-12T08:32:23.196Z,19.43
2019-01-12T08:34:53.115Z,19.77
2019-01-12T08:37:22.659Z,19.57
2019-01-12T08:39:52.203Z,19.70
2019-01-12T08:42:21.763Z,21.27
2019-01-12T08:44:51.322Z,20.80
2019-01-12T08:47:20.795Z,20.50
2019-01-12T08:49:50.338Z,20.10
2019-01-12T08:52:20.410Z,19.93
2019-01-12T08:54:49.919Z,20.50
2019-01-12T08:57:19.972Z,21.27
2019-01-12T08:59:49.484Z,21.13
2019-01-12T09:02:18.995Z,21.27
2019-01-12T09:04:51.388Z,22.27
2019-01-12T09:07:20.895Z,21.57
2019-01-12T09:09:50.434Z,21.50
2019-01-12T09:12:20.009Z,22.80
2019-01-12T09:14:49.536Z,22.00
2019-01-12T09:17:19.474Z,21.97
2019-01-12T09:19:48.971Z,23.03
2019-01-12T09:22:18.657Z,20.10
2019-01-12T09:24:48.188Z,20.57
2019-01-12T09:27:17.718Z,22.57
2019-01-12T09:29:47.255Z,21.40
2019-01-12T09:32:16.767Z,21.80
2019-01-12T09:34:46.308Z,20.87
2019-01-12T09:37:16.137Z,23.20
2019-01-12T09:39:45.827Z,22.10
2019-01-12T09:42:15.328Z,22.90
2019-01-12T09:44:44.883Z,22.40
2019-01-12T09:47:14.429Z,24.07
2019-01-12T09:49:44.101Z,23.77
2019-01-12T09:52:13.661Z,23.83
2019-01-12T09:54:43.140Z,25.93
2019-01-12T09:57:13.023Z,25.10
2019-01-12T09:59:42.568Z,25.03
2019-01-12T10:02:12.103Z,26.33
2019-01-12T10:04:41.994Z,27.17
2019-01-12T10:07:11.925Z,25.60
2019-01-12T10:09:41.792Z,26.80
2019-01-12T10:12:11.319Z,27.13
2019-01-12T10:14:41.154Z,27.17
2019-01-12T10:17:10.746Z,26.47
2019-01-12T10:19:40.716Z,27.60
2019-01-12T10:22:10.233Z,27.70
2019-01-12T10:24:39.774Z,27.90
2019-01-12T10:27:09.359Z,28.53
2019-01-12T10:29:38.916Z,27.37
2019-01-12T10:32:08.444Z,30.77
2019-01-12T10:34:38.002Z,30.97
2019-01-12T10:37:07.553Z,29.43
2019-01-12T10:39:37.045Z,29.43
2019-01-12T10:42:06.699Z,29.63
2019-01-12T10:44:36.533Z,30.47
2019-01-12T10:47:06.448Z,30.70
2019-01-12T10:49:36.397Z,30.33
2019-01-12T10:52:06.080Z,31.73
2019-01-12T10:54:35.600Z,30.53
2019-01-12T10:57:05.745Z,31.80
2019-01-12T10:59:36.240Z,33.40
2019-01-12T11:02:06.536Z,30.60
2019-01-12T11:04:36.072Z,29.13
2019-01-12T11:07:06.018Z,31.50
2019-01-12T11:09:35.844Z,29.17
2019-01-12T11:12:05.955Z,30.63
2019-01-12T11:14:35.490Z,31.80
2019-01-12T11:17:05.522Z,33.10
2019-01-12T11:19:35.068Z,32.20
2019-01-12T11:22:04.791Z,34.20
2019-01-12T11:24:34.280Z,30.33
2019-01-12T11:27:03.837Z,30.87
2019-01-12T11:29:33.407Z,33.10
2019-01-12T11:32:02.939Z,29.37
2019-01-12T11:34:32.458Z,30.50
2019-01-12T11:37:01.983Z,30.00
2019-01-12T11:39:31.496Z,31.20
2019-01-12T11:42:01.038Z,28.93
2019-01-12T11:44:30.585Z,26.60
2019-01-12T11:47:00.084Z,26.90
2019-01-12T11:49:29.615Z,27.93
2019-01-12T11:51:59.336Z,27.00
2019-01-12T11:54:28.873Z,25.73
2019-01-12T11:56:58.549Z,26.47
2019-01-12T11:59:28.082Z,24.97
2019-01-12T12:01:57.602Z,24.30
2019-01-12T12:04:27.184Z,26.50
2019-01-12T12:06:56.637Z,25.30
2019-01-12T12:09:26.302Z,23.70
2019-01-12T12:11:55.808Z,22.37
2019-01-12T12:14:25.339Z,22.80
2019-01-12T12:16:54.839Z,22.80
2019-01-12T12:19:24.408Z,21.83
2019-01-12T12:21:53.905Z,22.63
2019-01-12T12:24:23.431Z,19.80
2019-01-12T12:26:52.973Z,21.10
2019-01-12T12:29:22.505Z,21.27
2019-01-12T12:31:52.417Z,22.23
2019-01-12T12:34:21.958Z,20.67
2019-01-12T12:36:51.488Z,19.10
2019-01-12T12:39:21.033Z,19.97
2019-01-12T12:41:50.589Z,20.20
2019-01-12T12:44:20.968Z,20.37
2019-01-12T12:46:50.532Z,19.90
2019-01-12T12:49:20.081Z,19.20
2019-01-12T12:51:49.749Z,18.23
2019-01-12T12:54:19.287Z,18.97
2019-01-12T12:56:48.792Z,17.40
2019-01-12T12:59:19.937Z,17.70
2019-01-12T13:01:49.661Z,16.47
2019-01-12T13:04:19.555Z,16.10
2019-01-12T13:06:49.660Z,13.53
2019-01-12T13:09:19.625Z,15.10
2019-01-12T13:11:49.440Z,13.73
2019-01-12T13:14:19.082Z,14.33
2019-01-12T13:16:48.734Z,13.27
2019-01-12T13:19:18.584Z,13.60
2019-01-12T13:21:48.144Z,12.90
2019-01-12T13:24:17.894Z,12.07
2019-01-12T13:26:47.404Z,10.93
2019-01-12T13:29:16.909Z,9.30
2019-01-12T13:31:47.016Z,9.00
2019-01-12T13:34:16.575Z,8.47
2019-01-12T13:36:46.919Z,7.60
2019-01-12T13:39:16.415Z,6.90
2019-01-12T13:41:46.233Z,6.87
2019-01-12T13:44:16.233Z,7.67
2019-01-12T13:46:46.022Z,7.10
2019-01-12T13:49:15.570Z,7.10
2019-01-12T13:51:45.459Z,6.50
2019-01-12T13:54:15.044Z,4.73
2019-01-12T13:56:44.615Z,5.10
2019-01-12T13:59:14.128Z,5.57
2019-01-12T14:01:43.701Z,4.40
2019-01-12T14:04:13.258Z,5.20
2019-01-12T14:06:42.802Z,5.00
2019-01-12T14:09:12.353Z,4.53
2019-01-12T14:11:41.915Z,5.70
2019-01-12T14:14:11.842Z,5.40
2019-01-12T14:16:41.354Z,5.33
2019-01-12T14:19:10.915Z,5.50
2019-01-12T14:21:41.216Z,5.50
2019-01-12T14:24:10.770Z,5.40
2019-01-12T14:26:40.700Z,5.90
2019-01-12T14:29:10.266Z,6.40
2019-01-12T14:31:40.192Z,5.87
2019-01-12T14:34:09.790Z,5.40
2019-01-12T14:36:39.352Z,6.80
2019-01-12T14:39:11.387Z,6.40
2019-01-12T14:41:41.318Z,6.37
2019-01-12T14:44:11.342Z,6.43
2019-01-12T14:46:41.819Z,6.33
2019-01-12T14:49:11.408Z,6.60
2019-01-12T14:51:41.458Z,7.50
2019-01-12T14:54:11.025Z,7.87
2019-01-12T14:56:40.556Z,5.60
2019-01-12T14:59:10.418Z,5.80
2019-01-12T15:01:40.168Z,5.93
2019-01-12T15:04:09.697Z,7.03
2019-01-12T15:06:39.366Z,7.13
2019-01-12T15:09:09.438Z,6.47
2019-01-12T15:11:38.939Z,5.70
2019-01-12T15:14:08.472Z,4.30
2019-01-12T15:16:37.963Z,4.67
2019-01-12T15:19:07.478Z,4.70
2019-01-12T15:21:37.029Z,4.93
2019-01-12T15:24:10.190Z,5.27
2019-01-12T15:26:39.811Z,5.67
2019-01-12T15:29:09.358Z,6.33
2019-01-12T15:31:38.872Z,5.83
2019-01-12T15:34:08.349Z,5.30
2019-01-12T15:36:40.910Z,4.93
2019-01-12T15:39:10.435Z,4.50
2019-01-12T15:41:39.961Z,5.30
2019-01-12T15:44:09.450Z,4.00
2019-01-12T15:46:38.982Z,5.30
2019-01-12T15:49:08.640Z,3.77
2019-01-12T15:51:38.187Z,3.80
2019-01-12T15:54:07.721Z,4.33
2019-01-12T15:56:37.274Z,5.03
2019-01-12T15:59:06.842Z,4.70
2019-01-12T16:01:36.330Z,4.07
2019-01-12T16:04:05.972Z,4.00
2019-01-12T16:06:35.510Z,4.03
2019-01-12T16:09:08.038Z,4.87
2019-01-12T16:11:38.217Z,6.00
2019-01-12T16:14:08.222Z,5.23
2019-01-12T16:16:37.785Z,5.70
2019-01-12T16:19:07.332Z,5.30
2019-01-12T16:21:37.770Z,5.40
2019-01-12T16:24:07.347Z,5.90
2019-01-12T16:26:37.612Z,7.10
2019-01-12T16:29:07.949Z,6.77
2019-01-12T16:31:37.850Z,7.50
2019-01-12T16:34:07.383Z,5.37
2019-01-12T16:36:37.240Z,5.80
2019-01-12T16:39:08.893Z,5.90
2019-01-12T16:41:38.597Z,5.93
2019-01-12T16:44:08.299Z,5.97
2019-01-12T16:46:37.927Z,6.20
2019-01-12T16:49:08.101Z,5.60
2019-01-12T16:51:37.914Z,5.77
2019-01-12T16:54:07.509Z,4.50
2019-01-12T16:56:37.187Z,5.90
2019-01-12T16:59:06.689Z,5.23
2019-01-12T17:01:36.185Z,4.33
2019-01-12T17:04:05.832Z,4.77
2019-01-12T17:06:35.331Z,3.93
2019-01-12T17:09:08.024Z,4.10
2019-01-12T17:11:37.548Z,4.60
2019-01-12T17:14:07.413Z,4.60
2019-01-12T17:16:37.019Z,4.60
2019-01-12T17:19:06.553Z,3.77
2019-01-12T17:21:36.089Z,3.80
2019-01-12T17:24:06.011Z,5.40
2019-01-12T17:26:35.541Z,4.90
2019-01-12T17:29:05.289Z,4.90
2019-01-12T17:31:34.830Z,5.23
2019-01-12T17:34:04.762Z,4.70
2019-01-12T17:36:34.691Z,4.80
2019-01-12T17:39:05.912Z,4.97
2019-01-12T17:41:35.476Z,7.57
2019-01-12T17:44:05.416Z,6.10
2019-01-12T17:46:35.397Z,5.23
2019-01-12T17:49:05.123Z,5.53
2019-01-12T17:51:34.690Z,6.23
2019-01-12T17:54:04.210Z,5.77
2019-01-12T17:56:33.748Z,6.20
2019-01-12T17:59:03.244Z,6.20
2019-01-12T18:01:32.828Z,7.23
2019-01-12T18:04:02.353Z,5.87
2019-01-12T18:06:31.868Z,8.37
2019-01-12T18:09:01.425Z,5.63
2019-01-12T18:11:31.085Z,6.00
2019-01-12T18:14:00.593Z,5.00
2019-01-12T18:16:30.265Z,5.37
2019-01-12T18:18:59.910Z,3.30
2019-01-12T18:21:29.419Z,2.87
2019-01-12T18:23:58.908Z,3.77
2019-01-12T18:26:28.446Z,3.73
2019-01-12T18:28:58.396Z,4.10
2019-01-12T18:31:28.764Z,3.50
2019-01-12T18:33:58.300Z,3.97
2019-01-12T18:36:27.791Z,3.70
2019-01-12T18:38:57.729Z,3.33
2019-01-12T18:41:27.227Z,4.10
2019-01-12T18:43:56.813Z,5.33
2019-01-12T18:46:26.464Z,4.10
2019-01-12T18:48:55.961Z,4.33
2019-01-12T18:51:25.508Z,3.63
2019-01-12T18:53:55.000Z,4.80
2019-01-12T18:56:24.549Z,4.30
2019-01-12T18:58:58.970Z,5.37
2019-01-12T19:01:25.625Z,5.77
2019-01-12T19:03:55.162Z,6.13
2019-01-12T19:06:24.684Z,6.23
2019-01-12T19:08:54.244Z,7.37
2019-01-12T19:11:24.489Z,7.47
2019-01-12T19:13:54.028Z,7.63
2019-01-12T19:16:24.076Z,8.90
2019-01-12T19:18:53.933Z,8.10
2019-01-12T19:21:23.825Z,7.47
2019-01-12T19:23:53.365Z,6.77
2019-01-12T19:26:23.073Z,7.67
2019-01-12T19:28:52.604Z,6.20
2019-01-12T19:31:22.169Z,5.70
2019-01-12T19:33:51.698Z,3.40
2019-01-12T19:36:21.222Z,2.90
2019-01-12T19:38:50.772Z,2.80
2019-01-12T19:41:20.393Z,2.53
2019-01-12T19:43:50.067Z,2.23
2019-01-12T19:46:19.594Z,2.60
2019-01-12T19:48:49.120Z,2.50
2019-01-12T19:51:19.472Z,2.93
2019-01-12T19:53:49.018Z,3.90
2019-01-12T19:56:18.539Z,4.97
2019-01-12T19:58:48.080Z,5.90
2019-01-12T20:01:17.615Z,5.80
2019-01-12T20:03:47.464Z,7.07
2019-01-12T20:06:17.393Z,6.50
2019-01-12T20:08:47.359Z,7.90
2019-01-12T20:11:16.910Z,7.83
2019-01-12T20:13:46.399Z,6.70
2019-01-12T20:16:15.929Z,7.30
2019-01-12T20:18:45.454Z,7.23
2019-01-12T20:21:15.035Z,6.50
2019-01-12T20:23:44.941Z,6.47
2019-01-12T20:26:14.468Z,7.33
2019-01-12T20:28:44.039Z,7.10
2019-01-12T20:31:53.686Z,8.13
2019-01-12T20:34:36.833Z,6.23
2019-01-12T20:38:05.697Z,7.07
2019-01-12T20:41:16.596Z,6.10
2019-01-12T20:44:32.344Z,7.07
2019-01-12T20:47:57.612Z,5.97
2019-01-12T20:51:04.720Z,5.10
2019-01-12T20:53:56.109Z,7.23
2019-01-12T20:56:56.757Z,6.67
2019-01-12T20:59:44.562Z,5.33
2019-01-12T21:02:55.620Z,6.10
2019-01-12T21:05:43.076Z,5.20
2019-01-12T21:09:05.027Z,4.97
2019-01-12T21:12:10.941Z,5.57
2019-01-12T21:15:27.215Z,5.93
2019-01-12T21:17:56.768Z,6.30
2019-01-12T21:20:26.300Z,6.20
2019-01-12T21:22:55.867Z,6.87
2019-01-12T21:25:25.605Z,6.83
2019-01-12T21:27:55.200Z,6.70
2019-01-12T21:30:24.711Z,6.60
2019-01-12T21:32:54.220Z,5.90
2019-01-12T21:35:23.797Z,6.40
2019-01-12T21:37:53.293Z,5.30
2019-01-12T21:40:22.896Z,5.73
2019-01-12T21:42:52.712Z,6.50
2019-01-12T21:45:22.263Z,5.20
2019-01-12T21:47:51.786Z,5.13
2019-01-12T21:50:21.456Z,5.70
2019-01-12T21:52:50.972Z,6.23
2019-01-12T21:55:20.499Z,5.17
2019-01-12T21:57:50.065Z,7.13
2019-01-12T22:00:19.658Z,6.87
2019-01-12T22:02:49.377Z,6.10
2019-01-12T22:05:18.823Z,5.90
2019-01-12T22:07:48.378Z,5.60
2019-01-12T22:10:19.184Z,7.47
2019-01-12T22:12:49.084Z,6.20
2019-01-12T22:15:19.165Z,6.83
2019-01-12T22:17:49.131Z,6.53
2019-01-12T22:20:18.660Z,7.00
2019-01-12T22:22:48.606Z,7.40
2019-01-12T22:25:18.536Z,7.83
2019-01-12T22:27:48.110Z,6.00
2019-01-12T22:30:18.269Z,9.10
2019-01-12T22:32:48.048Z,6.97
2019-01-12T22:35:17.673Z,7.07
2019-01-12T22:37:47.164Z,7.90
2019-01-12T22:40:18.555Z,8.37
2019-01-12T22:42:48.254Z,7.30
2019-01-12T22:45:18.141Z,7.73
2019-01-12T22:47:47.668Z,6.20
2019-01-12T22:50:17.438Z,6.43
2019-01-12T22:52:46.998Z,6.70
2019-01-12T22:55:16.509Z,7.23
2019-01-12T22:57:46.498Z,7.57
2019-01-12T23:00:44.169Z,6.43
2019-01-12T23:03:13.923Z,7.20
2019-01-12T23:05:43.426Z,6.67
2019-01-12T23:08:13.404Z,7.50
2019-01-12T23:10:42.903Z,7.07
2019-01-12T23:13:12.407Z,7.40
2019-01-12T23:15:41.985Z,7.10
2019-01-12T23:18:11.630Z,6.97
2019-01-12T23:20:41.557Z,5.80
2019-01-12T23:23:11.104Z,7.97
2019-01-12T23:25:40.736Z,7.03
2019-01-12T23:28:10.325Z,7.50
2019-01-12T23:30:39.787Z,7.47
2019-01-12T23:33:09.345Z,7.07
2019-01-12T23:35:38.883Z,7.43
2019-01-12T23:38:08.380Z,6.43
2019-01-12T23:40:38.517Z,6.93
2019-01-12T23:43:08.091Z,6.70
2019-01-12T23:45:37.598Z,6.67
2019-01-12T23:48:07.095Z,7.40
2019-01-12T23:50:36.675Z,6.90
2019-01-12T23:53:06.491Z,6.60
2019-01-12T23:55:36.306Z,6.93
2019-01-12T23:58:05.848Z,6.73
